Esfahan Shahid Beheshti International Airport
OIFM : now visible

Airfield :











YOU CAN JOIN US ON...

 
LOGIN :

Register | Disclaimer

   EN    FR    IT 

 









Legend :    VFR   Marginal VFR   IFR   Intensive IFR   Very Intensive IFR
Visi :
Ceiling :
>= 8 km
>= 3000ft
5 to 8 km
1000 to 3000 ft
1500m to 5 km
500 to 1000 ft
800 to 1500m
200 to 500 ft
< 800m
< 200 ft
Symbols :   Thunderstorms  Fog  Heavy snow  Heavy precipitations  Wind > 20 kt






- Airport Elevation : 5059 ft
- IATA code : IFN


OIFM - Esfahan Shahid Beheshti International

CURRENT METAR :
  • 241800Z 00000KT 9999 FEW040 OVC100 14/00 Q1019 A3010

EXPIRED METARs :
  • 241730Z 25004KT 9999 FEW040 OVC100 15/01 Q1009 A2980
  • 241700Z 18002KT 9999 FEW040 OVC100 18/02 Q1019 A3010
  • 241630Z 00000KT 9999 SCT040 OVC100 18/02 Q1019 A3010
  • 241600Z 23004KT 9999 FEW035CB SCT040 OVC100 18/02 Q1019 A3011
  • 241530Z 16004KT 8000 FEW035CB BKN040 19/01 Q1019 A3011

TAF TAF OIFM
Valid from the 24 at 12:00 until the 25 at 18:00 UTC


241100Z 2412/2518 24006KT 7000 FEW040 BKN100
BECMG 2413/2414 FEW035CB SCT040 OVC100
TEMPO 2421/2506 3000 TS SHRA BR SCT030CB SCT035 OVC090
TEMPO 2508/2516 24018G28KT



MET'MAP, your aeronautical weather chart ! - Copyright ORBIFLY December 2007 - Disclaimer

ORBIFLY MET'MAP TEAM :

Programming & Development : Alexandra Zaïnal
Concept & original design : Baudouin d'Aumeries
Assistance for programming : Marc-Olivier Méhu
Technical & hardware support : Manuel Goepfert

Contact : metmap@orbifly.com




SOURCES & CREDITS :

   NOAA       Earth
Advisory